sensor_id;sensor_type;location;lat;lon;timestamp;P1;durP1;ratioP1;P2;durP2;ratioP2
3343;SDS011;1685;53.104;8.228;2023-03-20T00:00:22;35.20;;;17.47;;
3343;SDS011;1685;53.104;8.228;2023-03-20T00:02:54;35.90;;;18.30;;
3343;SDS011;1685;53.104;8.228;2023-03-20T00:05:22;34.73;;;17.93;;
3343;SDS011;1685;53.104;8.228;2023-03-20T00:07:50;34.33;;;17.47;;
3343;SDS011;1685;53.104;8.228;2023-03-20T00:10:17;37.83;;;17.53;;
3343;SDS011;1685;53.104;8.228;2023-03-20T00:12:45;37.30;;;15.77;;
3343;SDS011;1685;53.104;8.228;2023-03-20T00:15:16;33.83;;;17.90;;
3343;SDS011;1685;53.104;8.228;2023-03-20T00:17:53;27.03;;;14.80;;
3343;SDS011;1685;53.104;8.228;2023-03-20T00:20:21;24.07;;;14.37;;
3343;SDS011;1685;53.104;8.228;2023-03-20T00:22:49;21.37;;;12.93;;
3343;SDS011;1685;53.104;8.228;2023-03-20T00:25:17;21.73;;;12.53;;
3343;SDS011;1685;53.104;8.228;2023-03-20T00:27:45;23.03;;;13.77;;
3343;SDS011;1685;53.104;8.228;2023-03-20T00:30:15;22.97;;;14.07;;
3343;SDS011;1685;53.104;8.228;2023-03-20T00:32:48;22.50;;;11.80;;
3343;SDS011;1685;53.104;8.228;2023-03-20T00:35:21;24.00;;;12.53;;
3343;SDS011;1685;53.104;8.228;2023-03-20T00:37:50;25.87;;;12.40;;
3343;SDS011;1685;53.104;8.228;2023-03-20T00:40:18;19.20;;;10.57;;
3343;SDS011;1685;53.104;8.228;2023-03-20T00:42:46;15.47;;;8.77;;
3343;SDS011;1685;53.104;8.228;2023-03-20T00:45:15;14.60;;;8.90;;
3343;SDS011;1685;53.104;8.228;2023-03-20T00:47:44;9.50;;;7.50;;
3343;SDS011;1685;53.104;8.228;2023-03-20T00:50:16;13.77;;;8.83;;
3343;SDS011;1685;53.104;8.228;2023-03-20T00:52:46;14.40;;;9.37;;
3343;SDS011;1685;53.104;8.228;2023-03-20T00:55:13;14.50;;;9.47;;
3343;SDS011;1685;53.104;8.228;2023-03-20T00:57:41;11.43;;;8.03;;
3343;SDS011;1685;53.104;8.228;2023-03-20T01:00:24;12.60;;;8.20;;
3343;SDS011;1685;53.104;8.228;2023-03-20T01:02:56;11.07;;;7.57;;
3343;SDS011;1685;53.104;8.228;2023-03-20T01:05:24;14.00;;;8.47;;
3343;SDS011;1685;53.104;8.228;2023-03-20T01:07:54;14.03;;;9.33;;
3343;SDS011;1685;53.104;8.228;2023-03-20T01:10:22;16.70;;;10.00;;
3343;SDS011;1685;53.104;8.228;2023-03-20T01:12:54;15.47;;;11.00;;
3343;SDS011;1685;53.104;8.228;2023-03-20T01:15:26;17.40;;;10.00;;
3343;SDS011;1685;53.104;8.228;2023-03-20T01:17:56;18.80;;;8.93;;
3343;SDS011;1685;53.104;8.228;2023-03-20T01:20:24;19.03;;;10.57;;
3343;SDS011;1685;53.104;8.228;2023-03-20T01:22:53;19.23;;;9.80;;
3343;SDS011;1685;53.104;8.228;2023-03-20T01:25:20;12.90;;;8.57;;
3343;SDS011;1685;53.104;8.228;2023-03-20T01:27:48;13.83;;;8.37;;
3343;SDS011;1685;53.104;8.228;2023-03-20T01:30:18;16.00;;;9.20;;
3343;SDS011;1685;53.104;8.228;2023-03-20T01:32:46;14.10;;;8.40;;
3343;SDS011;1685;53.104;8.228;2023-03-20T01:35:14;12.50;;;8.27;;
3343;SDS011;1685;53.104;8.228;2023-03-20T01:37:43;14.27;;;9.50;;
3343;SDS011;1685;53.104;8.228;2023-03-20T01:40:25;11.10;;;8.40;;
3343;SDS011;1685;53.104;8.228;2023-03-20T01:42:57;10.10;;;7.53;;
3343;SDS011;1685;53.104;8.228;2023-03-20T01:45:27;11.47;;;8.17;;
3343;SDS011;1685;53.104;8.228;2023-03-20T01:47:57;12.23;;;8.67;;
3343;SDS011;1685;53.104;8.228;2023-03-20T01:50:28;12.60;;;8.70;;
3343;SDS011;1685;53.104;8.228;2023-03-20T01:52:59;14.93;;;9.00;;
3343;SDS011;1685;53.104;8.228;2023-03-20T01:55:32;11.90;;;8.50;;
3343;SDS011;1685;53.104;8.228;2023-03-20T01:58:01;13.53;;;9.33;;
3343;SDS011;1685;53.104;8.228;2023-03-20T02:00:31;10.70;;;8.17;;
3343;SDS011;1685;53.104;8.228;2023-03-20T02:02:58;10.73;;;7.83;;
3343;SDS011;1685;53.104;8.228;2023-03-20T02:05:25;12.70;;;8.03;;
3343;SDS011;1685;53.104;8.228;2023-03-20T02:08:02;12.67;;;8.00;;
3343;SDS011;1685;53.104;8.228;2023-03-20T02:10:38;10.20;;;7.30;;
3343;SDS011;1685;53.104;8.228;2023-03-20T02:13:05;9.23;;;7.70;;
3343;SDS011;1685;53.104;8.228;2023-03-20T02:15:33;11.10;;;7.47;;
3343;SDS011;1685;53.104;8.228;2023-03-20T02:18:01;11.23;;;8.07;;
3343;SDS011;1685;53.104;8.228;2023-03-20T02:20:34;13.07;;;8.73;;
3343;SDS011;1685;53.104;8.228;2023-03-20T02:23:27;12.90;;;8.03;;
3343;SDS011;1685;53.104;8.228;2023-03-20T02:26:32;11.10;;;7.73;;
3343;SDS011;1685;53.104;8.228;2023-03-20T02:32:44;13.00;;;8.37;;
3343;SDS011;1685;53.104;8.228;2023-03-20T02:41:21;11.47;;;8.53;;
3343;SDS011;1685;53.104;8.228;2023-03-20T02:43:54;12.00;;;8.40;;
3343;SDS011;1685;53.104;8.228;2023-03-20T02:46:37;12.03;;;7.90;;
3343;SDS011;1685;53.104;8.228;2023-03-20T02:49:15;12.80;;;8.17;;
3343;SDS011;1685;53.104;8.228;2023-03-20T02:51:51;13.00;;;8.30;;
3343;SDS011;1685;53.104;8.228;2023-03-20T02:54:25;12.43;;;8.47;;
3343;SDS011;1685;53.104;8.228;2023-03-20T02:56:59;11.90;;;8.20;;
3343;SDS011;1685;53.104;8.228;2023-03-20T02:59:31;14.40;;;8.30;;
3343;SDS011;1685;53.104;8.228;2023-03-20T03:02:03;14.63;;;8.80;;
3343;SDS011;1685;53.104;8.228;2023-03-20T03:04:33;13.10;;;8.40;;
3343;SDS011;1685;53.104;8.228;2023-03-20T03:07:02;13.90;;;9.07;;
3343;SDS011;1685;53.104;8.228;2023-03-20T03:09:34;13.60;;;9.37;;
3343;SDS011;1685;53.104;8.228;2023-03-20T03:12:06;13.37;;;9.70;;
3343;SDS011;1685;53.104;8.228;2023-03-20T03:14:38;15.17;;;9.30;;
3343;SDS011;1685;53.104;8.228;2023-03-20T03:17:07;12.20;;;8.13;;
3343;SDS011;1685;53.104;8.228;2023-03-20T03:19:36;12.70;;;8.17;;
3343;SDS011;1685;53.104;8.228;2023-03-20T03:22:07;13.50;;;9.10;;
3343;SDS011;1685;53.104;8.228;2023-03-20T03:24:36;13.00;;;8.73;;
3343;SDS011;1685;53.104;8.228;2023-03-20T03:27:06;14.77;;;8.90;;
3343;SDS011;1685;53.104;8.228;2023-03-20T03:29:38;14.70;;;9.40;;
3343;SDS011;1685;53.104;8.228;2023-03-20T03:32:18;13.93;;;8.30;;
3343;SDS011;1685;53.104;8.228;2023-03-20T03:34:48;15.33;;;8.83;;
3343;SDS011;1685;53.104;8.228;2023-03-20T03:37:16;13.23;;;9.17;;
3343;SDS011;1685;53.104;8.228;2023-03-20T03:39:53;12.37;;;8.97;;
3343;SDS011;1685;53.104;8.228;2023-03-20T03:42:29;9.80;;;8.50;;
3343;SDS011;1685;53.104;8.228;2023-03-20T03:45:01;14.93;;;9.03;;
3343;SDS011;1685;53.104;8.228;2023-03-20T03:47:35;15.00;;;9.20;;
3343;SDS011;1685;53.104;8.228;2023-03-20T03:50:09;13.40;;;8.27;;
3343;SDS011;1685;53.104;8.228;2023-03-20T03:52:39;14.87;;;9.50;;
3343;SDS011;1685;53.104;8.228;2023-03-20T03:55:10;14.07;;;9.10;;
3343;SDS011;1685;53.104;8.228;2023-03-20T03:57:40;14.50;;;9.50;;
3343;SDS011;1685;53.104;8.228;2023-03-20T04:00:10;16.77;;;10.07;;
3343;SDS011;1685;53.104;8.228;2023-03-20T04:02:42;15.83;;;9.77;;
3343;SDS011;1685;53.104;8.228;2023-03-20T04:05:12;19.43;;;9.73;;
3343;SDS011;1685;53.104;8.228;2023-03-20T04:07:43;20.37;;;10.73;;
3343;SDS011;1685;53.104;8.228;2023-03-20T04:10:12;14.90;;;9.63;;
3343;SDS011;1685;53.104;8.228;2023-03-20T04:12:39;15.50;;;9.70;;
3343;SDS011;1685;53.104;8.228;2023-03-20T04:15:08;20.97;;;8.87;;
3343;SDS011;1685;53.104;8.228;2023-03-20T04:17:36;16.13;;;9.40;;
3343;SDS011;1685;53.104;8.228;2023-03-20T04:20:04;16.10;;;9.67;;
3343;SDS011;1685;53.104;8.228;2023-03-20T04:22:32;14.40;;;9.50;;
3343;SDS011;1685;53.104;8.228;2023-03-20T04:24:59;15.30;;;9.80;;
3343;SDS011;1685;53.104;8.228;2023-03-20T04:27:28;14.73;;;9.90;;
3343;SDS011;1685;53.104;8.228;2023-03-20T04:29:55;16.10;;;9.60;;
3343;SDS011;1685;53.104;8.228;2023-03-20T04:32:22;16.00;;;9.40;;
3343;SDS011;1685;53.104;8.228;2023-03-20T04:34:49;16.83;;;9.00;;
3343;SDS011;1685;53.104;8.228;2023-03-20T04:37:17;20.90;;;10.03;;
3343;SDS011;1685;53.104;8.228;2023-03-20T04:39:44;19.03;;;10.13;;
3343;SDS011;1685;53.104;8.228;2023-03-20T04:42:11;16.27;;;9.73;;
3343;SDS011;1685;53.104;8.228;2023-03-20T04:44:40;15.17;;;9.33;;
3343;SDS011;1685;53.104;8.228;2023-03-20T04:47:06;15.80;;;10.97;;
3343;SDS011;1685;53.104;8.228;2023-03-20T04:49:34;12.83;;;8.53;;
3343;SDS011;1685;53.104;8.228;2023-03-20T04:52:01;16.67;;;9.93;;
3343;SDS011;1685;53.104;8.228;2023-03-20T04:54:28;17.17;;;9.40;;
3343;SDS011;1685;53.104;8.228;2023-03-20T04:56:55;13.47;;;8.90;;
3343;SDS011;1685;53.104;8.228;2023-03-20T04:59:22;18.03;;;9.00;;
3343;SDS011;1685;53.104;8.228;2023-03-20T05:01:50;14.07;;;8.70;;
3343;SDS011;1685;53.104;8.228;2023-03-20T05:04:17;13.63;;;8.87;;
3343;SDS011;1685;53.104;8.228;2023-03-20T05:06:45;16.73;;;9.37;;
3343;SDS011;1685;53.104;8.228;2023-03-20T05:09:13;17.10;;;9.17;;
3343;SDS011;1685;53.104;8.228;2023-03-20T05:11:40;14.80;;;8.00;;
3343;SDS011;1685;53.104;8.228;2023-03-20T05:14:07;18.57;;;8.90;;
3343;SDS011;1685;53.104;8.228;2023-03-20T05:16:36;17.80;;;9.57;;
3343;SDS011;1685;53.104;8.228;2023-03-20T05:19:04;14.33;;;8.67;;
3343;SDS011;1685;53.104;8.228;2023-03-20T05:21:31;19.53;;;9.90;;
3343;SDS011;1685;53.104;8.228;2023-03-20T05:23:58;13.37;;;8.23;;
3343;SDS011;1685;53.104;8.228;2023-03-20T05:26:25;13.73;;;8.60;;
3343;SDS011;1685;53.104;8.228;2023-03-20T05:28:52;19.60;;;9.07;;
3343;SDS011;1685;53.104;8.228;2023-03-20T05:31:19;20.33;;;8.30;;
3343;SDS011;1685;53.104;8.228;2023-03-20T05:33:46;14.83;;;8.80;;
3343;SDS011;1685;53.104;8.228;2023-03-20T05:36:15;18.90;;;8.70;;
3343;SDS011;1685;53.104;8.228;2023-03-20T05:38:41;14.43;;;8.33;;
3343;SDS011;1685;53.104;8.228;2023-03-20T05:41:09;16.00;;;8.43;;
3343;SDS011;1685;53.104;8.228;2023-03-20T05:43:36;18.23;;;9.33;;
3343;SDS011;1685;53.104;8.228;2023-03-20T05:46:03;20.50;;;9.63;;
3343;SDS011;1685;53.104;8.228;2023-03-20T05:48:30;15.70;;;10.07;;
3343;SDS011;1685;53.104;8.228;2023-03-20T05:50:57;17.57;;;10.40;;
3343;SDS011;1685;53.104;8.228;2023-03-20T05:53:25;12.50;;;8.73;;
3343;SDS011;1685;53.104;8.228;2023-03-20T05:55:52;12.37;;;9.27;;
3343;SDS011;1685;53.104;8.228;2023-03-20T05:58:19;16.87;;;9.80;;
3343;SDS011;1685;53.104;8.228;2023-03-20T06:00:46;15.40;;;10.00;;
3343;SDS011;1685;53.104;8.228;2023-03-20T06:03:13;15.20;;;9.03;;
3343;SDS011;1685;53.104;8.228;2023-03-20T06:05:41;19.23;;;11.10;;
3343;SDS011;1685;53.104;8.228;2023-03-20T06:08:08;12.93;;;9.50;;
3343;SDS011;1685;53.104;8.228;2023-03-20T06:10:36;15.30;;;10.33;;
3343;SDS011;1685;53.104;8.228;2023-03-20T06:13:03;20.17;;;11.40;;
3343;SDS011;1685;53.104;8.228;2023-03-20T06:15:30;19.30;;;10.67;;
3343;SDS011;1685;53.104;8.228;2023-03-20T06:17:57;25.10;;;11.73;;
3343;SDS011;1685;53.104;8.228;2023-03-20T06:20:24;18.90;;;10.10;;
3343;SDS011;1685;53.104;8.228;2023-03-20T06:22:51;22.00;;;11.23;;
3343;SDS011;1685;53.104;8.228;2023-03-20T06:25:19;15.40;;;10.37;;
3343;SDS011;1685;53.104;8.228;2023-03-20T06:27:47;22.90;;;11.20;;
3343;SDS011;1685;53.104;8.228;2023-03-20T06:30:14;18.10;;;11.30;;
3343;SDS011;1685;53.104;8.228;2023-03-20T06:32:42;15.37;;;11.10;;
3343;SDS011;1685;53.104;8.228;2023-03-20T06:35:10;26.13;;;10.37;;
3343;SDS011;1685;53.104;8.228;2023-03-20T06:37:37;15.67;;;10.33;;
3343;SDS011;1685;53.104;8.228;2023-03-20T06:40:05;15.93;;;10.80;;
3343;SDS011;1685;53.104;8.228;2023-03-20T06:42:34;17.03;;;11.60;;
3343;SDS011;1685;53.104;8.228;2023-03-20T06:45:02;17.17;;;11.87;;
3343;SDS011;1685;53.104;8.228;2023-03-20T06:47:30;24.50;;;11.93;;
3343;SDS011;1685;53.104;8.228;2023-03-20T06:49:57;19.47;;;11.50;;
3343;SDS011;1685;53.104;8.228;2023-03-20T06:52:25;19.53;;;11.43;;
3343;SDS011;1685;53.104;8.228;2023-03-20T06:54:52;22.57;;;11.90;;
3343;SDS011;1685;53.104;8.228;2023-03-20T06:57:20;19.20;;;11.50;;
3343;SDS011;1685;53.104;8.228;2023-03-20T06:59:47;15.20;;;11.07;;
3343;SDS011;1685;53.104;8.228;2023-03-20T07:02:15;21.77;;;10.97;;
3343;SDS011;1685;53.104;8.228;2023-03-20T07:04:42;18.33;;;11.40;;
3343;SDS011;1685;53.104;8.228;2023-03-20T07:07:09;23.77;;;11.70;;
3343;SDS011;1685;53.104;8.228;2023-03-20T07:09:36;15.87;;;11.57;;
3343;SDS011;1685;53.104;8.228;2023-03-20T07:12:03;17.37;;;10.73;;
3343;SDS011;1685;53.104;8.228;2023-03-20T07:14:31;15.30;;;9.20;;
3343;SDS011;1685;53.104;8.228;2023-03-20T07:16:58;17.73;;;10.00;;
3343;SDS011;1685;53.104;8.228;2023-03-20T07:19:26;13.90;;;9.83;;
3343;SDS011;1685;53.104;8.228;2023-03-20T07:21:54;13.00;;;9.20;;
3343;SDS011;1685;53.104;8.228;2023-03-20T07:24:25;19.20;;;9.40;;
3343;SDS011;1685;53.104;8.228;2023-03-20T07:26:53;14.40;;;9.93;;
3343;SDS011;1685;53.104;8.228;2023-03-20T07:29:20;21.80;;;9.97;;
3343;SDS011;1685;53.104;8.228;2023-03-20T07:31:47;19.00;;;9.50;;
3343;SDS011;1685;53.104;8.228;2023-03-20T07:34:14;14.40;;;8.57;;
3343;SDS011;1685;53.104;8.228;2023-03-20T07:36:43;12.80;;;8.80;;
3343;SDS011;1685;53.104;8.228;2023-03-20T07:39:10;20.23;;;9.33;;
3343;SDS011;1685;53.104;8.228;2023-03-20T07:41:38;12.50;;;8.40;;
3343;SDS011;1685;53.104;8.228;2023-03-20T07:44:06;13.67;;;9.13;;
3343;SDS011;1685;53.104;8.228;2023-03-20T07:46:34;14.23;;;8.63;;
3343;SDS011;1685;53.104;8.228;2023-03-20T07:49:01;14.80;;;9.13;;
3343;SDS011;1685;53.104;8.228;2023-03-20T07:51:29;14.03;;;9.13;;
3343;SDS011;1685;53.104;8.228;2023-03-20T07:53:58;14.77;;;8.40;;
3343;SDS011;1685;53.104;8.228;2023-03-20T07:56:24;13.23;;;8.03;;
3343;SDS011;1685;53.104;8.228;2023-03-20T07:58:51;15.50;;;9.43;;
3343;SDS011;1685;53.104;8.228;2023-03-20T08:01:19;25.00;;;10.23;;
3343;SDS011;1685;53.104;8.228;2023-03-20T08:03:46;22.00;;;9.73;;
3343;SDS011;1685;53.104;8.228;2023-03-20T08:06:13;16.37;;;9.13;;
3343;SDS011;1685;53.104;8.228;2023-03-20T08:08:40;15.83;;;9.83;;
3343;SDS011;1685;53.104;8.228;2023-03-20T08:11:10;21.83;;;10.00;;
3343;SDS011;1685;53.104;8.228;2023-03-20T08:13:37;18.73;;;9.30;;
3343;SDS011;1685;53.104;8.228;2023-03-20T08:16:04;15.23;;;9.80;;
3343;SDS011;1685;53.104;8.228;2023-03-20T08:18:31;17.13;;;8.50;;
3343;SDS011;1685;53.104;8.228;2023-03-20T08:20:58;15.83;;;9.97;;
3343;SDS011;1685;53.104;8.228;2023-03-20T08:23:25;13.57;;;9.43;;
3343;SDS011;1685;53.104;8.228;2023-03-20T08:25:52;14.33;;;8.70;;
3343;SDS011;1685;53.104;8.228;2023-03-20T08:28:21;11.77;;;8.40;;
3343;SDS011;1685;53.104;8.228;2023-03-20T08:30:48;13.97;;;8.30;;
3343;SDS011;1685;53.104;8.228;2023-03-20T08:33:16;12.40;;;8.43;;
3343;SDS011;1685;53.104;8.228;2023-03-20T08:35:43;13.80;;;7.50;;
3343;SDS011;1685;53.104;8.228;2023-03-20T08:38:20;12.13;;;8.90;;
3343;SDS011;1685;53.104;8.228;2023-03-20T08:40:47;13.80;;;8.87;;
3343;SDS011;1685;53.104;8.228;2023-03-20T08:43:15;13.80;;;8.87;;
3343;SDS011;1685;53.104;8.228;2023-03-20T08:45:43;12.70;;;7.90;;
3343;SDS011;1685;53.104;8.228;2023-03-20T08:48:10;15.70;;;8.10;;
3343;SDS011;1685;53.104;8.228;2023-03-20T08:50:37;12.70;;;7.00;;
3343;SDS011;1685;53.104;8.228;2023-03-20T08:53:05;14.47;;;7.50;;
3343;SDS011;1685;53.104;8.228;2023-03-20T08:55:32;10.03;;;7.87;;
3343;SDS011;1685;53.104;8.228;2023-03-20T08:57:59;10.60;;;7.37;;
3343;SDS011;1685;53.104;8.228;2023-03-20T09:00:26;8.60;;;7.30;;
3343;SDS011;1685;53.104;8.228;2023-03-20T09:02:55;12.00;;;8.50;;
3343;SDS011;1685;53.104;8.228;2023-03-20T09:05:21;9.70;;;7.70;;
3343;SDS011;1685;53.104;8.228;2023-03-20T09:07:48;10.80;;;7.70;;
3343;SDS011;1685;53.104;8.228;2023-03-20T09:10:16;12.77;;;7.47;;
3343;SDS011;1685;53.104;8.228;2023-03-20T09:12:43;12.70;;;7.57;;
3343;SDS011;1685;53.104;8.228;2023-03-20T09:15:10;8.13;;;6.60;;
3343;SDS011;1685;53.104;8.228;2023-03-20T09:17:38;12.40;;;7.00;;
3343;SDS011;1685;53.104;8.228;2023-03-20T09:20:07;13.83;;;9.13;;
3343;SDS011;1685;53.104;8.228;2023-03-20T09:22:35;9.27;;;7.00;;
3343;SDS011;1685;53.104;8.228;2023-03-20T09:25:05;8.50;;;6.53;;
3343;SDS011;1685;53.104;8.228;2023-03-20T09:27:32;10.20;;;6.73;;
3343;SDS011;1685;53.104;8.228;2023-03-20T09:30:00;9.60;;;7.10;;
3343;SDS011;1685;53.104;8.228;2023-03-20T09:32:27;10.53;;;7.70;;
3343;SDS011;1685;53.104;8.228;2023-03-20T09:34:54;10.27;;;6.50;;
3343;SDS011;1685;53.104;8.228;2023-03-20T09:37:22;9.70;;;7.10;;
3343;SDS011;1685;53.104;8.228;2023-03-20T09:39:49;11.60;;;6.50;;
3343;SDS011;1685;53.104;8.228;2023-03-20T09:42:20;10.30;;;7.67;;
3343;SDS011;1685;53.104;8.228;2023-03-20T09:44:56;15.23;;;7.83;;
3343;SDS011;1685;53.104;8.228;2023-03-20T09:47:37;8.30;;;6.20;;
3343;SDS011;1685;53.104;8.228;2023-03-20T09:50:15;10.53;;;6.63;;
3343;SDS011;1685;53.104;8.228;2023-03-20T09:52:51;9.83;;;6.47;;
3343;SDS011;1685;53.104;8.228;2023-03-20T09:55:26;9.43;;;6.20;;
3343;SDS011;1685;53.104;8.228;2023-03-20T09:57:59;8.80;;;6.60;;
3343;SDS011;1685;53.104;8.228;2023-03-20T10:00:29;10.70;;;6.13;;
3343;SDS011;1685;53.104;8.228;2023-03-20T10:02:59;12.57;;;6.47;;
3343;SDS011;1685;53.104;8.228;2023-03-20T10:05:29;7.37;;;4.90;;
3343;SDS011;1685;53.104;8.228;2023-03-20T10:08:01;10.60;;;5.47;;
3343;SDS011;1685;53.104;8.228;2023-03-20T10:10:32;7.50;;;5.80;;
3343;SDS011;1685;53.104;8.228;2023-03-20T10:13:07;8.43;;;5.87;;
3343;SDS011;1685;53.104;8.228;2023-03-20T10:15:48;15.73;;;6.20;;
3343;SDS011;1685;53.104;8.228;2023-03-20T10:18:20;7.47;;;5.40;;
3343;SDS011;1685;53.104;8.228;2023-03-20T10:20:53;9.30;;;5.30;;
3343;SDS011;1685;53.104;8.228;2023-03-20T10:23:26;11.80;;;5.20;;
3343;SDS011;1685;53.104;8.228;2023-03-20T10:26:01;8.73;;;4.83;;
3343;SDS011;1685;53.104;8.228;2023-03-20T10:28:33;6.73;;;4.87;;
3343;SDS011;1685;53.104;8.228;2023-03-20T10:31:08;11.20;;;5.20;;
3343;SDS011;1685;53.104;8.228;2023-03-20T10:33:47;5.20;;;3.90;;
3343;SDS011;1685;53.104;8.228;2023-03-20T10:36:27;7.80;;;5.63;;
3343;SDS011;1685;53.104;8.228;2023-03-20T10:39:10;6.80;;;4.70;;
3343;SDS011;1685;53.104;8.228;2023-03-20T10:41:41;9.17;;;5.10;;
3343;SDS011;1685;53.104;8.228;2023-03-20T10:44:15;8.90;;;4.67;;
3343;SDS011;1685;53.104;8.228;2023-03-20T10:46:48;9.90;;;5.00;;
3343;SDS011;1685;53.104;8.228;2023-03-20T10:49:20;7.30;;;5.20;;
3343;SDS011;1685;53.104;8.228;2023-03-20T10:51:55;7.97;;;4.90;;
3343;SDS011;1685;53.104;8.228;2023-03-20T10:54:27;7.13;;;5.23;;
3343;SDS011;1685;53.104;8.228;2023-03-20T10:56:56;26.77;;;6.20;;
3343;SDS011;1685;53.104;8.228;2023-03-20T10:59:26;10.87;;;5.13;;
3343;SDS011;1685;53.104;8.228;2023-03-20T11:01:54;9.17;;;5.63;;
3343;SDS011;1685;53.104;8.228;2023-03-20T11:04:21;6.63;;;4.70;;
3343;SDS011;1685;53.104;8.228;2023-03-20T11:06:50;10.03;;;5.27;;
3343;SDS011;1685;53.104;8.228;2023-03-20T11:09:22;12.17;;;5.23;;
3343;SDS011;1685;53.104;8.228;2023-03-20T11:11:54;12.57;;;6.07;;
3343;SDS011;1685;53.104;8.228;2023-03-20T11:14:24;9.07;;;5.63;;
3343;SDS011;1685;53.104;8.228;2023-03-20T11:16:52;8.73;;;5.53;;
3343;SDS011;1685;53.104;8.228;2023-03-20T11:19:20;10.60;;;5.07;;
3343;SDS011;1685;53.104;8.228;2023-03-20T11:21:50;10.30;;;5.57;;
3343;SDS011;1685;53.104;8.228;2023-03-20T11:24:21;12.23;;;5.97;;
3343;SDS011;1685;53.104;8.228;2023-03-20T11:26:53;6.60;;;5.70;;
3343;SDS011;1685;53.104;8.228;2023-03-20T11:29:29;9.10;;;5.70;;
3343;SDS011;1685;53.104;8.228;2023-03-20T11:32:02;8.77;;;6.27;;
3343;SDS011;1685;53.104;8.228;2023-03-20T11:34:32;8.13;;;5.37;;
3343;SDS011;1685;53.104;8.228;2023-03-20T11:37:05;11.47;;;6.00;;
3343;SDS011;1685;53.104;8.228;2023-03-20T11:39:51;10.53;;;5.70;;
3343;SDS011;1685;53.104;8.228;2023-03-20T11:42:23;14.20;;;6.20;;
3343;SDS011;1685;53.104;8.228;2023-03-20T11:44:59;11.10;;;6.47;;
3343;SDS011;1685;53.104;8.228;2023-03-20T11:47:27;13.00;;;6.20;;
3343;SDS011;1685;53.104;8.228;2023-03-20T11:49:58;8.50;;;6.00;;
3343;SDS011;1685;53.104;8.228;2023-03-20T11:52:27;10.63;;;6.47;;
3343;SDS011;1685;53.104;8.228;2023-03-20T11:54:57;14.57;;;6.40;;
3343;SDS011;1685;53.104;8.228;2023-03-20T11:57:31;6.97;;;5.63;;
3343;SDS011;1685;53.104;8.228;2023-03-20T12:00:01;19.10;;;6.70;;
3343;SDS011;1685;53.104;8.228;2023-03-20T12:02:30;11.37;;;5.90;;
3343;SDS011;1685;53.104;8.228;2023-03-20T12:04:58;14.03;;;6.07;;
3343;SDS011;1685;53.104;8.228;2023-03-20T12:07:26;15.30;;;6.80;;
3343;SDS011;1685;53.104;8.228;2023-03-20T12:09:58;11.13;;;6.20;;
3343;SDS011;1685;53.104;8.228;2023-03-20T12:12:33;6.20;;;4.23;;
3343;SDS011;1685;53.104;8.228;2023-03-20T12:15:07;14.50;;;7.20;;
3343;SDS011;1685;53.104;8.228;2023-03-20T12:17:45;11.23;;;6.73;;
3343;SDS011;1685;53.104;8.228;2023-03-20T12:20:19;15.63;;;7.87;;
3343;SDS011;1685;53.104;8.228;2023-03-20T12:22:53;11.17;;;6.20;;
3343;SDS011;1685;53.104;8.228;2023-03-20T12:25:25;15.33;;;5.93;;
3343;SDS011;1685;53.104;8.228;2023-03-20T12:27:56;12.43;;;6.90;;
3343;SDS011;1685;53.104;8.228;2023-03-20T12:30:30;8.23;;;5.47;;
3343;SDS011;1685;53.104;8.228;2023-03-20T12:33:01;9.47;;;6.50;;
3343;SDS011;1685;53.104;8.228;2023-03-20T12:35:33;13.60;;;7.10;;
3343;SDS011;1685;53.104;8.228;2023-03-20T12:38:02;9.30;;;6.30;;
3343;SDS011;1685;53.104;8.228;2023-03-20T12:40:37;10.70;;;5.90;;
3343;SDS011;1685;53.104;8.228;2023-03-20T12:43:11;9.27;;;6.60;;
3343;SDS011;1685;53.104;8.228;2023-03-20T12:45:43;13.60;;;6.60;;
3343;SDS011;1685;53.104;8.228;2023-03-20T12:48:19;10.37;;;6.60;;
3343;SDS011;1685;53.104;8.228;2023-03-20T12:51:02;10.13;;;5.23;;
3343;SDS011;1685;53.104;8.228;2023-03-20T12:53:41;13.20;;;6.73;;
3343;SDS011;1685;53.104;8.228;2023-03-20T12:56:28;7.70;;;5.63;;
3343;SDS011;1685;53.104;8.228;2023-03-20T12:59:11;7.40;;;5.70;;
3343;SDS011;1685;53.104;8.228;2023-03-20T13:01:44;8.67;;;6.23;;
3343;SDS011;1685;53.104;8.228;2023-03-20T13:04:19;10.10;;;6.17;;
3343;SDS011;1685;53.104;8.228;2023-03-20T13:07:06;22.80;;;6.67;;
3343;SDS011;1685;53.104;8.228;2023-03-20T13:10:00;9.60;;;6.63;;
3343;SDS011;1685;53.104;8.228;2023-03-20T13:12:39;8.63;;;5.90;;
3343;SDS011;1685;53.104;8.228;2023-03-20T13:15:18;9.27;;;6.97;;
3343;SDS011;1685;53.104;8.228;2023-03-20T13:17:51;11.73;;;6.00;;
3343;SDS011;1685;53.104;8.228;2023-03-20T13:20:26;8.67;;;5.40;;
3343;SDS011;1685;53.104;8.228;2023-03-20T13:22:58;11.40;;;5.50;;
3343;SDS011;1685;53.104;8.228;2023-03-20T13:25:44;7.93;;;5.33;;
3343;SDS011;1685;53.104;8.228;2023-03-20T13:28:21;12.60;;;5.90;;
3343;SDS011;1685;53.104;8.228;2023-03-20T13:30:57;10.43;;;6.37;;
3343;SDS011;1685;53.104;8.228;2023-03-20T13:33:36;13.13;;;6.00;;
3343;SDS011;1685;53.104;8.228;2023-03-20T13:36:10;9.80;;;5.80;;
3343;SDS011;1685;53.104;8.228;2023-03-20T13:38:46;10.90;;;5.10;;
3343;SDS011;1685;53.104;8.228;2023-03-20T13:41:17;15.03;;;6.13;;
3343;SDS011;1685;53.104;8.228;2023-03-20T13:43:44;8.20;;;5.80;;
3343;SDS011;1685;53.104;8.228;2023-03-20T13:46:21;12.97;;;5.53;;
3343;SDS011;1685;53.104;8.228;2023-03-20T13:48:50;6.97;;;5.07;;
3343;SDS011;1685;53.104;8.228;2023-03-20T13:51:21;8.03;;;5.73;;
3343;SDS011;1685;53.104;8.228;2023-03-20T13:53:54;12.60;;;5.93;;
3343;SDS011;1685;53.104;8.228;2023-03-20T13:56:32;12.80;;;6.83;;
3343;SDS011;1685;53.104;8.228;2023-03-20T13:59:13;16.43;;;6.47;;
3343;SDS011;1685;53.104;8.228;2023-03-20T14:01:59;15.77;;;6.23;;
3343;SDS011;1685;53.104;8.228;2023-03-20T14:04:36;11.27;;;5.57;;
3343;SDS011;1685;53.104;8.228;2023-03-20T14:07:24;10.73;;;6.47;;
3343;SDS011;1685;53.104;8.228;2023-03-20T14:09:53;13.60;;;7.13;;
3343;SDS011;1685;53.104;8.228;2023-03-20T14:12:22;9.53;;;7.23;;
3343;SDS011;1685;53.104;8.228;2023-03-20T14:14:51;11.37;;;8.20;;
3343;SDS011;1685;53.104;8.228;2023-03-20T14:17:22;14.90;;;8.10;;
3343;SDS011;1685;53.104;8.228;2023-03-20T14:19:51;9.93;;;8.00;;
3343;SDS011;1685;53.104;8.228;2023-03-20T14:22:19;11.90;;;8.17;;
3343;SDS011;1685;53.104;8.228;2023-03-20T14:24:53;16.07;;;7.87;;
3343;SDS011;1685;53.104;8.228;2023-03-20T14:27:23;15.70;;;9.20;;
3343;SDS011;1685;53.104;8.228;2023-03-20T14:29:51;16.37;;;8.40;;
3343;SDS011;1685;53.104;8.228;2023-03-20T14:32:28;19.80;;;9.00;;
3343;SDS011;1685;53.104;8.228;2023-03-20T14:34:59;11.17;;;7.73;;
3343;SDS011;1685;53.104;8.228;2023-03-20T14:37:55;17.20;;;8.60;;
3343;SDS011;1685;53.104;8.228;2023-03-20T14:40:37;12.57;;;8.03;;
3343;SDS011;1685;53.104;8.228;2023-03-20T14:43:16;19.43;;;7.73;;
3343;SDS011;1685;53.104;8.228;2023-03-20T14:45:50;10.20;;;7.43;;
3343;SDS011;1685;53.104;8.228;2023-03-20T14:48:27;11.60;;;7.33;;
3343;SDS011;1685;53.104;8.228;2023-03-20T14:51:05;12.73;;;7.63;;
3343;SDS011;1685;53.104;8.228;2023-03-20T14:53:39;17.73;;;8.07;;
3343;SDS011;1685;53.104;8.228;2023-03-20T14:56:07;10.97;;;7.13;;
3343;SDS011;1685;53.104;8.228;2023-03-20T14:58:42;6.70;;;6.00;;
3343;SDS011;1685;53.104;8.228;2023-03-20T15:01:14;9.20;;;6.60;;
3343;SDS011;1685;53.104;8.228;2023-03-20T15:03:49;9.30;;;6.60;;
3343;SDS011;1685;53.104;8.228;2023-03-20T15:06:19;8.17;;;6.50;;
3343;SDS011;1685;53.104;8.228;2023-03-20T15:08:48;10.10;;;6.57;;
3343;SDS011;1685;53.104;8.228;2023-03-20T15:11:18;14.27;;;7.40;;
3343;SDS011;1685;53.104;8.228;2023-03-20T15:13:47;11.00;;;7.03;;
3343;SDS011;1685;53.104;8.228;2023-03-20T15:16:15;13.53;;;7.83;;
3343;SDS011;1685;53.104;8.228;2023-03-20T15:18:43;10.07;;;7.07;;
3343;SDS011;1685;53.104;8.228;2023-03-20T15:21:13;11.83;;;6.93;;
3343;SDS011;1685;53.104;8.228;2023-03-20T15:23:41;14.67;;;8.90;;
3343;SDS011;1685;53.104;8.228;2023-03-20T15:26:09;12.53;;;7.50;;
3343;SDS011;1685;53.104;8.228;2023-03-20T15:28:36;12.93;;;8.23;;
3343;SDS011;1685;53.104;8.228;2023-03-20T15:31:04;10.60;;;7.57;;
3343;SDS011;1685;53.104;8.228;2023-03-20T15:33:32;14.30;;;8.27;;